createdAt,value
2023-01-17T00:10:47.550Z,19.58
2023-01-17T00:30:47.566Z,19.58
2023-01-17T00:50:46.768Z,19.58
2023-01-17T01:10:47.022Z,19.58
2023-01-17T01:30:47.553Z,19.58
2023-01-17T02:10:47.548Z,19.58
2023-01-17T02:50:47.543Z,19.58
2023-01-17T03:10:47.015Z,19.57
2023-01-17T03:30:47.555Z,19.57
2023-01-17T04:10:47.537Z,19.59
2023-01-17T04:30:47.739Z,19.6
2023-01-17T05:10:47.081Z,19.63
2023-01-17T06:30:47.542Z,19.66
2023-01-17T07:10:47.553Z,19.66
2023-01-17T07:30:47.535Z,19.66
2023-01-17T07:50:46.769Z,19.66
2023-01-17T08:10:47.539Z,19.65
2023-01-17T08:30:47.556Z,19.65
2023-01-17T09:10:47.544Z,19.65
2023-01-17T09:30:47.448Z,19.64
2023-01-17T09:50:47.024Z,19.64
2023-01-17T10:10:47.555Z,19.64
2023-01-17T10:30:46.521Z,19.63
2023-01-17T10:50:47.547Z,19.63
2023-01-17T11:30:47.559Z,19.62
2023-01-17T11:50:47.617Z,19.62
2023-01-17T12:10:47.541Z,19.62
2023-01-17T13:10:47.665Z,19.61
2023-01-17T13:30:47.539Z,19.61
2023-01-17T13:50:47.558Z,19.61
2023-01-17T14:10:47.567Z,19.61
2023-01-17T14:30:47.581Z,19.61
2023-01-17T14:50:47.542Z,19.61
2023-01-17T15:10:47.534Z,19.61
2023-01-17T15:30:47.446Z,19.61
2023-01-17T15:50:47.537Z,19.61
2023-01-17T16:10:47.541Z,19.6
2023-01-17T16:30:47.024Z,19.6
2023-01-17T16:50:46.750Z,19.61
2023-01-17T17:10:47.592Z,19.6
2023-01-17T17:30:47.556Z,19.6
2023-01-17T17:50:47.528Z,19.6
2023-01-17T18:10:47.586Z,19.59
2023-01-17T18:50:47.519Z,19.59
2023-01-17T19:10:47.539Z,19.58
2023-01-17T19:30:47.526Z,19.58
2023-01-17T19:50:47.557Z,19.57
2023-01-17T20:10:49.090Z,19.57
2023-01-17T20:30:46.768Z,19.56
2023-01-17T20:50:47.529Z,19.56
2023-01-17T21:10:47.014Z,19.55
2023-01-17T21:30:47.573Z,19.55
2023-01-17T21:50:47.404Z,19.55
2023-01-17T22:10:46.766Z,19.55
2023-01-17T22:30:47.615Z,19.54
2023-01-17T23:10:47.552Z,19.53
2023-01-17T23:30:47.555Z,19.53
